createdAt,value
2023-02-09T00:00:06.824Z,15
2023-02-09T00:00:18.904Z,16
2023-02-09T00:00:30.540Z,16
2023-02-09T00:00:42.994Z,16
2023-02-09T00:00:54.743Z,16
2023-02-09T00:01:05.369Z,16
2023-02-09T00:01:17.039Z,16
2023-02-09T00:01:29.143Z,17
2023-02-09T00:01:42.395Z,17
2023-02-09T00:01:54.770Z,17
2023-02-09T00:02:07.891Z,17
2023-02-09T00:02:19.506Z,16
2023-02-09T00:02:31.931Z,16
2023-02-09T00:02:42.512Z,17
2023-02-09T00:02:54.138Z,18
2023-02-09T00:03:05.736Z,16
2023-02-09T00:03:16.373Z,17
2023-02-09T00:03:28.751Z,17
2023-02-09T00:03:40.384Z,18
2023-02-09T00:03:52.489Z,17
2023-02-09T00:04:03.196Z,17
2023-02-09T00:04:14.792Z,17
2023-02-09T00:04:25.409Z,17
2023-02-09T00:04:37.674Z,18
2023-02-09T00:04:48.263Z,18
2023-02-09T00:04:59.841Z,18
2023-02-09T00:05:11.894Z,19
2023-02-09T00:05:23.481Z,18
2023-02-09T00:05:35.780Z,17
2023-02-09T00:05:47.378Z,17
2023-02-09T00:06:00.474Z,17
2023-02-09T00:06:11.078Z,17
2023-02-09T00:06:23.393Z,18
2023-02-09T00:06:34.013Z,18
2023-02-09T00:06:46.092Z,17
2023-02-09T00:07:00.460Z,17
2023-02-09T00:07:13.688Z,17
2023-02-09T00:07:24.309Z,16
2023-02-09T00:07:34.949Z,16
2023-02-09T00:07:46.512Z,16
2023-02-09T00:07:57.290Z,15
2023-02-09T00:08:07.960Z,15
2023-02-09T00:08:21.013Z,15
2023-02-09T00:08:33.341Z,17
2023-02-09T00:08:43.921Z,17
2023-02-09T00:08:55.503Z,17
2023-02-09T00:09:06.081Z,17
2023-02-09T00:09:16.692Z,17
2023-02-09T00:09:27.334Z,16
2023-02-09T00:09:38.923Z,16
2023-02-09T00:09:51.252Z,17
2023-02-09T00:10:03.847Z,17
2023-02-09T00:10:15.431Z,16
2023-02-09T00:10:26.061Z,16
2023-02-09T00:10:37.593Z,17
2023-02-09T00:10:49.144Z,17
2023-02-09T00:11:00.704Z,17
2023-02-09T00:11:11.320Z,16
2023-02-09T00:11:23.404Z,15
2023-02-09T00:11:34.033Z,15
2023-02-09T00:11:44.633Z,15
2023-02-09T00:11:56.943Z,15
2023-02-09T00:12:08.561Z,16
2023-02-09T00:12:19.231Z,16
2023-02-09T00:12:29.855Z,16
2023-02-09T00:12:40.495Z,15
2023-02-09T00:12:52.819Z,15
2023-02-09T00:13:05.372Z,15
2023-02-09T00:13:15.950Z,14
2023-02-09T00:13:26.524Z,15
2023-02-09T00:13:38.137Z,15
2023-02-09T00:13:48.762Z,15
2023-02-09T00:14:00.822Z,15
2023-02-09T00:14:11.475Z,13
2023-02-09T00:14:22.404Z,13
2023-02-09T00:14:33.973Z,14
2023-02-09T00:14:45.555Z,15
2023-02-09T00:14:57.163Z,15
2023-02-09T00:15:07.772Z,14
2023-02-09T00:15:19.346Z,13
2023-02-09T00:15:32.907Z,14
2023-02-09T00:15:43.494Z,15
2023-02-09T00:15:56.075Z,15
2023-02-09T00:16:08.401Z,15
2023-02-09T00:16:20.054Z,15
2023-02-09T00:16:32.387Z,14
2023-02-09T00:16:43.102Z,14
2023-02-09T00:16:54.789Z,15
2023-02-09T00:17:07.152Z,15
2023-02-09T00:17:17.767Z,15
2023-02-09T00:17:29.390Z,15
2023-02-09T00:17:41.673Z,15
2023-02-09T00:17:54.034Z,14
2023-02-09T00:18:06.348Z,14
2023-02-09T00:18:16.968Z,15
2023-02-09T00:18:27.614Z,15
2023-02-09T00:18:40.462Z,15
2023-02-09T00:18:52.752Z,15
2023-02-09T00:19:04.343Z,15
2023-02-09T00:19:14.979Z,15
2023-02-09T00:19:25.622Z,14
2023-02-09T00:19:36.225Z,15
2023-02-09T00:19:49.703Z,15
2023-02-09T00:20:01.293Z,15
2023-02-09T00:20:12.018Z,15
2023-02-09T00:20:22.695Z,14
2023-02-09T00:20:35.362Z,15
2023-02-09T00:20:47.660Z,15
2023-02-09T00:20:59.282Z,16
2023-02-09T00:21:09.903Z,16
2023-02-09T00:21:21.516Z,15
2023-02-09T00:21:32.173Z,15
2023-02-09T00:21:43.966Z,15
2023-02-09T00:21:55.532Z,15
2023-02-09T00:22:08.626Z,14
2023-02-09T00:22:20.280Z,15
2023-02-09T00:22:32.338Z,15
2023-02-09T00:22:45.325Z,16
2023-02-09T00:22:55.984Z,15
2023-02-09T00:23:06.607Z,16
2023-02-09T00:23:18.186Z,16
2023-02-09T00:23:28.775Z,16
2023-02-09T00:23:39.447Z,16
2023-02-09T00:23:52.565Z,16
2023-02-09T00:24:04.293Z,17
2023-02-09T00:24:16.694Z,17
2023-02-09T00:24:27.274Z,17
2023-02-09T00:24:40.150Z,17
2023-02-09T00:24:52.280Z,17
2023-02-09T00:25:02.924Z,17
2023-02-09T00:25:15.724Z,19
2023-02-09T00:25:27.576Z,19
2023-02-09T00:25:38.199Z,20
2023-02-09T00:25:50.307Z,20
2023-02-09T00:26:01.897Z,19
2023-02-09T00:26:13.476Z,20
2023-02-09T00:26:27.419Z,19
2023-02-09T00:26:38.976Z,19
2023-02-09T00:26:50.653Z,19
2023-02-09T00:27:01.277Z,20
2023-02-09T00:27:13.547Z,20
2023-02-09T00:27:25.665Z,19
2023-02-09T00:27:37.225Z,18
2023-02-09T00:27:48.829Z,18
2023-02-09T00:27:59.580Z,18
2023-02-09T00:28:11.193Z,18
2023-02-09T00:28:21.864Z,18
2023-02-09T00:28:32.483Z,18
2023-02-09T00:28:44.776Z,18
2023-02-09T00:28:57.067Z,18
2023-02-09T00:29:09.368Z,18
2023-02-09T00:29:19.992Z,18
2023-02-09T00:29:32.272Z,18
2023-02-09T00:29:42.962Z,18
2023-02-09T00:29:55.243Z,18
2023-02-09T00:30:06.783Z,18
2023-02-09T00:30:17.357Z,18
2023-02-09T00:30:29.754Z,18
2023-02-09T00:30:41.349Z,18
2023-02-09T00:30:53.931Z,20
2023-02-09T00:31:06.353Z,19
2023-02-09T00:31:19.044Z,18
2023-02-09T00:31:30.846Z,18
2023-02-09T00:31:41.543Z,18
2023-02-09T00:31:52.187Z,18
2023-02-09T00:32:04.555Z,17
2023-02-09T00:32:16.099Z,17
2023-02-09T00:32:28.912Z,17
2023-02-09T00:32:39.549Z,17
2023-02-09T00:32:51.184Z,17
2023-02-09T00:33:02.684Z,17
2023-02-09T00:33:15.022Z,17
2023-02-09T00:33:26.625Z,16
2023-02-09T00:33:38.191Z,16
2023-02-09T00:33:50.013Z,17
2023-02-09T00:34:02.345Z,17
2023-02-09T00:34:14.668Z,17
2023-02-09T00:34:26.238Z,17
2023-02-09T00:34:36.843Z,17
2023-02-09T00:34:48.895Z,17
2023-02-09T00:35:01.715Z,16
2023-02-09T00:35:13.373Z,17
2023-02-09T00:35:25.952Z,17
2023-02-09T00:35:38.504Z,18
2023-02-09T00:35:50.803Z,18
2023-02-09T00:36:03.116Z,19
2023-02-09T00:36:15.394Z,20
2023-02-09T00:36:26.963Z,19
2023-02-09T00:36:37.529Z,19
2023-02-09T00:36:48.138Z,18
2023-02-09T00:37:00.203Z,18
2023-02-09T00:37:11.787Z,18
2023-02-09T00:37:22.477Z,18
2023-02-09T00:37:34.566Z,18
2023-02-09T00:37:46.163Z,17
2023-02-09T00:38:00.140Z,17
2023-02-09T00:38:12.402Z,18
2023-02-09T00:38:23.998Z,18
2023-02-09T00:38:34.627Z,17
2023-02-09T00:38:46.205Z,17
2023-02-09T00:38:57.757Z,18
2023-02-09T00:39:09.343Z,18
2023-02-09T00:39:20.943Z,19
2023-02-09T00:39:33.743Z,18
2023-02-09T00:39:44.536Z,17
2023-02-09T00:39:56.877Z,17
2023-02-09T00:40:08.426Z,18
2023-02-09T00:40:20.004Z,18
2023-02-09T00:40:30.655Z,18
2023-02-09T00:40:42.319Z,16
2023-02-09T00:40:53.938Z,17
2023-02-09T00:41:05.550Z,18
2023-02-09T00:41:16.188Z,18
2023-02-09T00:41:27.825Z,18
2023-02-09T00:41:38.414Z,18
2023-02-09T00:41:50.764Z,19
2023-02-09T00:42:01.365Z,18
2023-02-09T00:42:12.962Z,18
2023-02-09T00:42:24.562Z,18
2023-02-09T00:42:35.191Z,17
2023-02-09T00:42:46.820Z,17
2023-02-09T00:42:57.505Z,17
2023-02-09T00:43:09.801Z,17
2023-02-09T00:43:21.386Z,18
2023-02-09T00:43:31.995Z,18
2023-02-09T00:43:45.055Z,19
2023-02-09T00:43:55.685Z,18
2023-02-09T00:44:07.225Z,19
2023-02-09T00:44:18.786Z,19
2023-02-09T00:44:29.412Z,19
2023-02-09T00:44:41.476Z,20
2023-02-09T00:44:53.572Z,20
2023-02-09T00:45:04.175Z,20
2023-02-09T00:45:14.791Z,20
2023-02-09T00:45:25.357Z,20
2023-02-09T00:45:36.943Z,20
2023-02-09T00:45:48.550Z,19
2023-02-09T00:46:00.995Z,18
2023-02-09T00:46:12.915Z,18
2023-02-09T00:46:24.955Z,18
2023-02-09T00:46:36.536Z,18
2023-02-09T00:46:49.370Z,18
2023-02-09T00:47:00.026Z,18
2023-02-09T00:47:10.643Z,18
2023-02-09T00:47:22.966Z,19
2023-02-09T00:47:35.505Z,19
2023-02-09T00:47:48.595Z,20
2023-02-09T00:47:59.304Z,20
2023-02-09T00:48:11.601Z,19
2023-02-09T00:48:23.875Z,19
2023-02-09T00:48:35.451Z,18
2023-02-09T00:48:48.086Z,19
2023-02-09T00:49:00.674Z,19
2023-02-09T00:49:13.766Z,19
2023-02-09T00:49:24.381Z,20
2023-02-09T00:49:36.646Z,20
2023-02-09T00:49:48.966Z,20
2023-02-09T00:50:00.527Z,20
2023-02-09T00:50:13.327Z,20
2023-02-09T00:50:26.956Z,19
2023-02-09T00:50:38.554Z,19
2023-02-09T00:50:49.192Z,19
2023-02-09T00:51:02.244Z,19
2023-02-09T00:51:13.824Z,20
2023-02-09T00:51:24.529Z,19
2023-02-09T00:51:35.139Z,19
2023-02-09T00:51:45.735Z,19
2023-02-09T00:51:56.395Z,19
2023-02-09T00:52:09.912Z,19
2023-02-09T00:52:23.741Z,19
2023-02-09T00:52:34.404Z,19
2023-02-09T00:52:45.077Z,18
2023-02-09T00:52:55.666Z,18
2023-02-09T00:53:07.305Z,19
2023-02-09T00:53:17.943Z,19
2023-02-09T00:53:28.528Z,19
2023-02-09T00:53:40.806Z,18
2023-02-09T00:53:51.477Z,19
2023-02-09T00:54:03.285Z,18
2023-02-09T00:54:15.594Z,19
2023-02-09T00:54:26.174Z,19
2023-02-09T00:54:37.792Z,19
2023-02-09T00:54:48.367Z,18
2023-02-09T00:54:59.934Z,19
2023-02-09T00:55:11.484Z,18
2023-02-09T00:55:23.285Z,20
2023-02-09T00:55:34.874Z,20
2023-02-09T00:55:46.462Z,19
2023-02-09T00:55:58.755Z,19
2023-02-09T00:56:10.861Z,18
2023-02-09T00:56:23.815Z,19
2023-02-09T00:56:34.486Z,18
2023-02-09T00:56:46.756Z,18
2023-02-09T00:56:59.833Z,19
2023-02-09T00:57:12.174Z,19
2023-02-09T00:57:25.224Z,18
2023-02-09T00:57:36.845Z,18
2023-02-09T00:57:48.464Z,18
2023-02-09T00:58:01.572Z,18
2023-02-09T00:58:13.866Z,18
2023-02-09T00:58:26.939Z,18
2023-02-09T00:58:39.204Z,19
2023-02-09T00:58:50.775Z,19
2023-02-09T00:59:03.107Z,19
2023-02-09T00:59:13.740Z,19
2023-02-09T00:59:24.418Z,20
2023-02-09T00:59:35.025Z,19
2023-02-09T00:59:46.607Z,18
2023-02-09T00:59:58.211Z,18
2023-02-09T01:00:09.802Z,18
2023-02-09T01:00:20.400Z,19
2023-02-09T01:00:34.519Z,19
2023-02-09T01:00:46.395Z,18
2023-02-09T01:00:58.221Z,18
2023-02-09T01:01:09.893Z,18
2023-02-09T01:01:21.746Z,18
2023-02-09T01:01:34.598Z,19
2023-02-09T01:01:45.226Z,20
2023-02-09T01:01:57.575Z,19
2023-02-09T01:02:08.156Z,19
2023-02-09T01:02:20.778Z,19
2023-02-09T01:02:32.609Z,18
2023-02-09T01:02:44.957Z,19
2023-02-09T01:02:57.257Z,19
2023-02-09T01:03:08.655Z,19
2023-02-09T01:03:20.220Z,19
2023-02-09T01:03:31.827Z,18
2023-02-09T01:03:42.499Z,18
2023-02-09T01:03:54.146Z,19
2023-02-09T01:04:04.804Z,19
2023-02-09T01:04:18.454Z,18
2023-02-09T01:04:30.144Z,19
2023-02-09T01:04:41.926Z,20
2023-02-09T01:04:53.630Z,20
2023-02-09T01:05:05.308Z,20
2023-02-09T01:05:17.691Z,19
2023-02-09T01:05:29.264Z,20
2023-02-09T01:05:40.893Z,19
2023-02-09T01:05:53.343Z,19
2023-02-09T01:06:05.175Z,18
2023-02-09T01:06:15.880Z,19
2023-02-09T01:06:28.715Z,19
2023-02-09T01:06:39.440Z,20
2023-02-09T01:06:51.734Z,20
2023-02-09T01:07:02.500Z,19
2023-02-09T01:07:14.145Z,20
2023-02-09T01:07:24.788Z,20
2023-02-09T01:07:35.396Z,20
2023-02-09T01:07:47.723Z,20
2023-02-09T01:07:59.345Z,19
2023-02-09T01:08:10.048Z,19
2023-02-09T01:08:21.656Z,20
2023-02-09T01:08:33.745Z,20
2023-02-09T01:08:46.056Z,20
2023-02-09T01:08:58.391Z,19
2023-02-09T01:09:10.667Z,19
2023-02-09T01:09:22.282Z,19
2023-02-09T01:09:32.937Z,20
2023-02-09T01:09:45.003Z,20
2023-02-09T01:09:56.664Z,20
2023-02-09T01:10:09.002Z,19
2023-02-09T01:10:21.584Z,19
2023-02-09T01:10:32.226Z,19
2023-02-09T01:10:43.241Z,19
2023-02-09T01:10:54.961Z,19
2023-02-09T01:11:05.622Z,19
2023-02-09T01:11:17.253Z,20
2023-02-09T01:11:27.893Z,21
2023-02-09T01:11:39.503Z,21
2023-02-09T01:11:50.154Z,20
2023-02-09T01:12:02.477Z,19
2023-02-09T01:12:13.135Z,19
2023-02-09T01:12:23.782Z,20
2023-02-09T01:12:34.442Z,20
2023-02-09T01:12:45.050Z,20
2023-02-09T01:12:55.682Z,20
2023-02-09T01:13:07.976Z,22
2023-02-09T01:13:21.023Z,21
2023-02-09T01:13:31.634Z,20
2023-02-09T01:13:42.269Z,19
2023-02-09T01:13:52.892Z,20
2023-02-09T01:14:03.544Z,20
2023-02-09T01:14:14.298Z,20
2023-02-09T01:14:25.912Z,20
2023-02-09T01:14:37.492Z,19
2023-02-09T01:14:50.564Z,20
2023-02-09T01:15:02.219Z,20
2023-02-09T01:15:13.739Z,20
2023-02-09T01:15:24.386Z,20
2023-02-09T01:15:35.002Z,20
2023-02-09T01:15:45.578Z,19
2023-02-09T01:15:57.263Z,20
2023-02-09T01:16:09.542Z,20
2023-02-09T01:16:21.183Z,20
2023-02-09T01:16:33.510Z,22
2023-02-09T01:16:44.293Z,21
2023-02-09T01:16:54.975Z,21
2023-02-09T01:17:05.755Z,22
2023-02-09T01:17:16.379Z,21
2023-02-09T01:17:27.025Z,21
2023-02-09T01:17:37.666Z,20
2023-02-09T01:17:49.283Z,20
2023-02-09T01:18:01.854Z,22
2023-02-09T01:18:12.477Z,23
2023-02-09T01:18:23.098Z,22
2023-02-09T01:18:35.405Z,21
2023-02-09T01:18:46.032Z,21
2023-02-09T01:18:56.665Z,21
2023-02-09T01:19:07.308Z,21
2023-02-09T01:19:17.917Z,22
2023-02-09T01:19:28.512Z,22
2023-02-09T01:19:39.121Z,22
2023-02-09T01:19:51.436Z,21
2023-02-09T01:20:02.074Z,21
2023-02-09T01:20:12.684Z,21
2023-02-09T01:20:23.279Z,22
2023-02-09T01:20:33.873Z,23
2023-02-09T01:20:45.899Z,23
2023-02-09T01:20:58.410Z,24
2023-02-09T01:21:09.054Z,22
2023-02-09T01:21:20.641Z,22
2023-02-09T01:21:32.232Z,23
2023-02-09T01:21:42.851Z,23
2023-02-09T01:21:53.472Z,23
2023-02-09T01:22:06.326Z,22
2023-02-09T01:22:18.906Z,23
2023-02-09T01:22:29.533Z,24
2023-02-09T01:22:40.147Z,24
2023-02-09T01:22:51.742Z,24
2023-02-09T01:23:03.320Z,23
2023-02-09T01:23:13.909Z,23
2023-02-09T01:23:24.554Z,22
2023-02-09T01:23:36.612Z,23
2023-02-09T01:23:47.233Z,23
2023-02-09T01:23:58.827Z,22
2023-02-09T01:24:11.114Z,21
2023-02-09T01:24:23.429Z,21
2023-02-09T01:24:34.019Z,21
2023-02-09T01:24:46.093Z,21
2023-02-09T01:24:58.411Z,21
2023-02-09T01:25:12.014Z,21
2023-02-09T01:25:25.581Z,21
2023-02-09T01:25:38.697Z,22
2023-02-09T01:25:51.000Z,20
2023-02-09T01:26:02.666Z,21
2023-02-09T01:26:14.959Z,20
2023-02-09T01:26:26.526Z,21
2023-02-09T01:26:38.792Z,19
2023-02-09T01:26:49.439Z,18
2023-02-09T01:27:01.047Z,17
2023-02-09T01:27:12.634Z,17
2023-02-09T01:27:24.998Z,18
2023-02-09T01:27:35.605Z,19
2023-02-09T01:27:48.175Z,19
2023-02-09T01:27:59.895Z,18
2023-02-09T01:28:10.570Z,18
2023-02-09T01:28:22.677Z,18
2023-02-09T01:28:34.261Z,18
2023-02-09T01:28:44.864Z,18
2023-02-09T01:28:55.522Z,19
2023-02-09T01:29:06.145Z,19
2023-02-09T01:29:17.692Z,20
2023-02-09T01:29:30.003Z,19
2023-02-09T01:29:41.592Z,19
2023-02-09T01:29:53.189Z,19
2023-02-09T01:30:04.787Z,18
2023-02-09T01:30:15.429Z,19
2023-02-09T01:30:27.106Z,20
2023-02-09T01:30:37.736Z,20
2023-02-09T01:30:48.765Z,19
2023-02-09T01:31:02.109Z,19
2023-02-09T01:31:13.902Z,19
2023-02-09T01:31:26.390Z,20
2023-02-09T01:31:37.120Z,21
2023-02-09T01:31:49.524Z,20
2023-02-09T01:32:02.377Z,21
2023-02-09T01:32:14.556Z,21
2023-02-09T01:32:26.153Z,21
2023-02-09T01:32:36.774Z,22
2023-02-09T01:32:48.876Z,22
2023-02-09T01:33:01.647Z,23
2023-02-09T01:33:12.261Z,21
2023-02-09T01:33:25.229Z,21
2023-02-09T01:33:35.864Z,21
2023-02-09T01:33:46.515Z,20
2023-02-09T01:33:58.838Z,20
2023-02-09T01:34:11.149Z,21
2023-02-09T01:34:22.712Z,21
2023-02-09T01:34:34.999Z,20
2023-02-09T01:34:45.638Z,21
2023-02-09T01:34:56.263Z,22
2023-02-09T01:35:06.896Z,22
2023-02-09T01:35:19.216Z,23
2023-02-09T01:35:32.100Z,23
2023-02-09T01:35:42.937Z,23
2023-02-09T01:35:53.584Z,21
2023-02-09T01:36:07.589Z,20
2023-02-09T01:36:18.251Z,20
2023-02-09T01:36:29.743Z,22
2023-02-09T01:36:41.534Z,22
2023-02-09T01:36:52.163Z,23
2023-02-09T01:37:03.768Z,24
2023-02-09T01:37:14.373Z,25
2023-02-09T01:37:26.000Z,24
2023-02-09T01:37:38.328Z,24
2023-02-09T01:37:48.974Z,23
2023-02-09T01:37:59.634Z,23
2023-02-09T01:38:10.246Z,24
2023-02-09T01:38:20.869Z,25
2023-02-09T01:38:31.456Z,25
2023-02-09T01:38:43.055Z,26
2023-02-09T01:38:53.673Z,27
2023-02-09T01:39:04.316Z,26
2023-02-09T01:39:16.624Z,26
2023-02-09T01:39:27.233Z,26
2023-02-09T01:39:37.884Z,26
2023-02-09T01:39:48.534Z,26
2023-02-09T01:40:00.818Z,26
2023-02-09T01:40:11.465Z,25
2023-02-09T01:40:22.133Z,26
2023-02-09T01:40:32.825Z,27
2023-02-09T01:40:45.223Z,27
2023-02-09T01:40:56.935Z,26
2023-02-09T01:41:07.553Z,25
2023-02-09T01:41:19.103Z,25
2023-02-09T01:41:29.756Z,25
2023-02-09T01:41:41.315Z,25
2023-02-09T01:41:51.915Z,25
2023-02-09T01:42:04.486Z,25
2023-02-09T01:42:15.104Z,26
2023-02-09T01:42:25.766Z,27
2023-02-09T01:42:38.099Z,27
2023-02-09T01:42:50.197Z,29
2023-02-09T01:43:01.818Z,30
2023-02-09T01:43:12.445Z,29
2023-02-09T01:43:23.078Z,28
2023-02-09T01:43:34.633Z,28
2023-02-09T01:43:46.263Z,27
2023-02-09T01:43:56.874Z,27
2023-02-09T01:44:07.473Z,27
2023-02-09T01:44:20.348Z,26
2023-02-09T01:44:30.962Z,25
2023-02-09T01:44:42.553Z,26
2023-02-09T01:44:55.634Z,26
2023-02-09T01:45:08.244Z,27
2023-02-09T01:45:21.050Z,27
2023-02-09T01:45:33.336Z,26
2023-02-09T01:45:46.409Z,24
2023-02-09T01:45:58.767Z,25
2023-02-09T01:46:10.429Z,25
2023-02-09T01:46:23.313Z,26
2023-02-09T01:46:34.040Z,25
2023-02-09T01:46:45.642Z,25
2023-02-09T01:46:58.438Z,24
2023-02-09T01:47:09.318Z,25
2023-02-09T01:47:21.414Z,25
2023-02-09T01:47:32.020Z,27
2023-02-09T01:47:44.132Z,27
2023-02-09T01:47:56.182Z,26
2023-02-09T01:48:07.842Z,24
2023-02-09T01:48:20.891Z,24
2023-02-09T01:48:31.512Z,23
2023-02-09T01:48:42.157Z,22
2023-02-09T01:48:54.439Z,23
2023-02-09T01:49:05.060Z,23
2023-02-09T01:49:18.134Z,23
2023-02-09T01:49:28.740Z,22
2023-02-09T01:49:39.678Z,23
2023-02-09T01:49:50.300Z,22
2023-02-09T01:50:00.942Z,22
2023-02-09T01:50:12.528Z,23
2023-02-09T01:50:24.848Z,23
2023-02-09T01:50:37.130Z,23
2023-02-09T01:50:49.451Z,23
2023-02-09T01:51:00.040Z,22
2023-02-09T01:51:11.622Z,23
2023-02-09T01:51:23.212Z,23
2023-02-09T01:51:34.779Z,21
2023-02-09T01:51:47.079Z,22
2023-02-09T01:51:58.659Z,21
2023-02-09T01:52:10.749Z,22
2023-02-09T01:52:22.331Z,22
2023-02-09T01:52:34.641Z,23
2023-02-09T01:52:47.708Z,22
2023-02-09T01:52:59.328Z,22
2023-02-09T01:53:09.949Z,21
2023-02-09T01:53:20.610Z,22
2023-02-09T01:53:32.175Z,22
2023-02-09T01:53:45.230Z,21
2023-02-09T01:53:57.544Z,21
2023-02-09T01:54:09.135Z,22
2023-02-09T01:54:21.254Z,21
2023-02-09T01:54:34.028Z,20
2023-02-09T01:54:45.642Z,20
2023-02-09T01:54:57.259Z,20
2023-02-09T01:55:08.816Z,20
2023-02-09T01:55:20.860Z,20
2023-02-09T01:55:31.450Z,20
2023-02-09T01:55:43.019Z,21
2023-02-09T01:55:54.610Z,21
2023-02-09T01:56:06.951Z,22
2023-02-09T01:56:18.544Z,22
2023-02-09T01:56:31.341Z,21
2023-02-09T01:56:42.040Z,20
2023-02-09T01:56:53.657Z,21
2023-02-09T01:57:06.491Z,21
2023-02-09T01:57:19.071Z,21
2023-02-09T01:57:30.884Z,20
2023-02-09T01:57:41.503Z,20
2023-02-09T01:57:53.139Z,21
2023-02-09T01:58:04.729Z,21
2023-02-09T01:58:17.069Z,21
2023-02-09T01:58:27.672Z,20
2023-02-09T01:58:40.049Z,20
2023-02-09T01:58:53.112Z,20
2023-02-09T01:59:04.711Z,20
2023-02-09T01:59:16.279Z,20
2023-02-09T01:59:27.870Z,20
2023-02-09T01:59:39.459Z,20
2023-02-09T01:59:50.079Z,21
2023-02-09T02:00:00.761Z,22
2023-02-09T02:00:13.071Z,22
2023-02-09T02:00:25.435Z,21
2023-02-09T02:00:36.042Z,20
2023-02-09T02:00:48.238Z,20
2023-02-09T02:01:00.468Z,20
2023-02-09T02:01:12.562Z,20
2023-02-09T02:01:23.315Z,20
2023-02-09T02:01:34.044Z,20
2023-02-09T02:01:46.408Z,20
2023-02-09T02:01:58.053Z,21
2023-02-09T02:02:08.727Z,21
2023-02-09T02:02:20.324Z,21
2023-02-09T02:02:31.968Z,19
2023-02-09T02:02:42.655Z,19
2023-02-09T02:02:54.341Z,20
2023-02-09T02:03:04.998Z,21
2023-02-09T02:03:15.611Z,21
2023-02-09T02:03:26.251Z,20
2023-02-09T02:03:38.399Z,20
2023-02-09T02:03:49.020Z,20
2023-02-09T02:04:00.680Z,20
2023-02-09T02:04:11.283Z,20
2023-02-09T02:04:21.938Z,20
2023-02-09T02:04:34.051Z,21
2023-02-09T02:04:44.630Z,20
2023-02-09T02:04:56.940Z,20
2023-02-09T02:05:09.247Z,20
2023-02-09T02:05:21.333Z,21
2023-02-09T02:05:31.940Z,21
2023-02-09T02:05:42.534Z,21
2023-02-09T02:05:54.132Z,19
2023-02-09T02:06:04.771Z,20
2023-02-09T02:06:17.132Z,20
2023-02-09T02:06:28.722Z,20
2023-02-09T02:06:41.634Z,21
2023-02-09T02:06:54.476Z,21
2023-02-09T02:07:05.089Z,21
2023-02-09T02:07:17.314Z,21
2023-02-09T02:07:29.602Z,21
2023-02-09T02:07:40.251Z,20
2023-02-09T02:07:51.840Z,20
2023-02-09T02:08:02.477Z,20
2023-02-09T02:08:14.073Z,21
2023-02-09T02:08:26.380Z,22
2023-02-09T02:08:37.950Z,21
2023-02-09T02:08:48.540Z,20
2023-02-09T02:09:00.132Z,21
2023-02-09T02:09:12.402Z,22
2023-02-09T02:09:24.710Z,23
2023-02-09T02:09:35.351Z,22
2023-02-09T02:09:47.684Z,22
2023-02-09T02:09:59.270Z,21
2023-02-09T02:10:10.907Z,21
2023-02-09T02:10:22.490Z,20
2023-02-09T02:10:34.846Z,21
2023-02-09T02:10:46.746Z,22
2023-02-09T02:10:58.590Z,22
2023-02-09T02:11:10.145Z,21
2023-02-09T02:11:22.474Z,22
2023-02-09T02:11:34.548Z,22
2023-02-09T02:11:45.172Z,21
2023-02-09T02:11:55.894Z,21
2023-02-09T02:12:07.498Z,22
2023-02-09T02:12:20.068Z,23
2023-02-09T02:12:30.681Z,22
2023-02-09T02:12:42.305Z,22
2023-02-09T02:12:56.389Z,21
2023-02-09T02:13:07.949Z,21
2023-02-09T02:13:20.749Z,22
2023-02-09T02:13:33.553Z,22
2023-02-09T02:13:45.151Z,22
2023-02-09T02:13:59.219Z,21
2023-02-09T02:14:10.818Z,20
2023-02-09T02:14:22.449Z,21
2023-02-09T02:14:34.005Z,22
2023-02-09T02:14:44.661Z,21
2023-02-09T02:14:57.546Z,19
2023-02-09T02:15:09.129Z,20
2023-02-09T02:15:19.794Z,21
2023-02-09T02:15:32.911Z,21
2023-02-09T02:15:44.583Z,19
2023-02-09T02:15:56.978Z,19
2023-02-09T02:16:10.667Z,20
2023-02-09T02:16:22.297Z,20
2023-02-09T02:16:33.925Z,20
2023-02-09T02:16:44.512Z,20
2023-02-09T02:16:56.039Z,20
2023-02-09T02:17:08.131Z,20
2023-02-09T02:17:21.720Z,20
2023-02-09T02:17:33.737Z,21
2023-02-09T02:17:45.897Z,21
2023-02-09T02:17:56.593Z,20
2023-02-09T02:18:08.244Z,20
2023-02-09T02:18:18.847Z,21
2023-02-09T02:18:29.578Z,21
2023-02-09T02:18:41.205Z,21
2023-02-09T02:18:52.847Z,20
2023-02-09T02:19:03.633Z,19
2023-02-09T02:19:14.254Z,19
2023-02-09T02:19:24.846Z,20
2023-02-09T02:19:35.489Z,20
2023-02-09T02:19:49.575Z,20
2023-02-09T02:20:01.176Z,21
2023-02-09T02:20:11.789Z,21
2023-02-09T02:20:22.449Z,22
2023-02-09T02:20:33.144Z,22
2023-02-09T02:20:45.569Z,22
2023-02-09T02:20:57.536Z,21
2023-02-09T02:21:08.142Z,21
2023-02-09T02:21:18.796Z,22
2023-02-09T02:21:29.417Z,21
2023-02-09T02:21:41.537Z,21
2023-02-09T02:21:52.177Z,22
2023-02-09T02:22:05.258Z,23
2023-02-09T02:22:17.639Z,22
2023-02-09T02:22:28.270Z,21
2023-02-09T02:22:38.899Z,22
2023-02-09T02:22:50.591Z,22
2023-02-09T02:23:01.201Z,23
2023-02-09T02:23:11.816Z,22
2023-02-09T02:23:23.410Z,21
2023-02-09T02:23:35.699Z,21
2023-02-09T02:23:46.374Z,22
2023-02-09T02:23:56.979Z,22
2023-02-09T02:24:07.596Z,21
2023-02-09T02:24:18.230Z,21
2023-02-09T02:24:28.841Z,21
2023-02-09T02:24:41.167Z,21
2023-02-09T02:24:52.739Z,21
2023-02-09T02:25:03.385Z,21
2023-02-09T02:25:13.999Z,21
2023-02-09T02:25:24.656Z,22
2023-02-09T02:25:36.202Z,21
2023-02-09T02:25:48.338Z,21
2023-02-09T02:26:00.419Z,21
2023-02-09T02:26:12.540Z,20
2023-02-09T02:26:23.178Z,21
2023-02-09T02:26:33.811Z,21
2023-02-09T02:26:46.109Z,22
2023-02-09T02:26:56.735Z,21
2023-02-09T02:27:07.379Z,22
2023-02-09T02:27:21.426Z,21
2023-02-09T02:27:32.114Z,21
2023-02-09T02:27:44.429Z,20
2023-02-09T02:27:56.046Z,22
2023-02-09T02:28:07.752Z,23
2023-02-09T02:28:19.903Z,22
2023-02-09T02:28:31.601Z,22
2023-02-09T02:28:43.219Z,22
2023-02-09T02:28:55.306Z,23
2023-02-09T02:29:07.595Z,22
2023-02-09T02:29:20.429Z,21
2023-02-09T02:29:32.750Z,20
2023-02-09T02:29:43.434Z,20
2023-02-09T02:29:54.033Z,21
2023-02-09T02:30:04.655Z,21
2023-02-09T02:30:16.946Z,20
2023-02-09T02:30:28.618Z,20
2023-02-09T02:30:40.550Z,21
2023-02-09T02:30:52.761Z,22
2023-02-09T02:31:05.071Z,23
2023-02-09T02:31:16.831Z,22
2023-02-09T02:31:28.616Z,22
2023-02-09T02:31:40.442Z,21
2023-02-09T02:31:52.561Z,21
2023-02-09T02:32:04.439Z,21
2023-02-09T02:32:16.038Z,21
2023-02-09T02:32:27.630Z,21
2023-02-09T02:32:40.025Z,22
2023-02-09T02:32:52.356Z,22
2023-02-09T02:33:04.928Z,22
2023-02-09T02:33:16.484Z,22
2023-02-09T02:33:28.818Z,22
2023-02-09T02:33:40.172Z,22
2023-02-09T02:33:52.467Z,22
2023-02-09T02:34:04.305Z,21
2023-02-09T02:34:15.886Z,21
2023-02-09T02:34:26.524Z,20
2023-02-09T02:34:38.136Z,20
2023-02-09T02:34:50.193Z,21
2023-02-09T02:35:01.826Z,21
2023-02-09T02:35:13.894Z,21
2023-02-09T02:35:26.184Z,21
2023-02-09T02:35:38.984Z,21
2023-02-09T02:35:49.645Z,21
2023-02-09T02:36:01.249Z,20
2023-02-09T02:36:12.827Z,21
2023-02-09T02:36:23.420Z,21
2023-02-09T02:36:34.929Z,21
2023-02-09T02:36:46.535Z,21
2023-02-09T02:36:58.112Z,21
2023-02-09T02:37:10.985Z,21
2023-02-09T02:37:23.320Z,21
2023-02-09T02:37:35.341Z,21
2023-02-09T02:37:45.986Z,21
2023-02-09T02:37:58.314Z,20
2023-02-09T02:38:09.895Z,20
2023-02-09T02:38:20.505Z,20
2023-02-09T02:38:32.113Z,21
2023-02-09T02:38:42.711Z,21
2023-02-09T02:38:55.811Z,20
2023-02-09T02:39:07.422Z,20
2023-02-09T02:39:19.789Z,20
2023-02-09T02:39:31.378Z,20
2023-02-09T02:39:42.065Z,21
2023-02-09T02:39:52.696Z,20
2023-02-09T02:40:04.390Z,20
2023-02-09T02:40:15.036Z,20
2023-02-09T02:40:27.336Z,20
2023-02-09T02:40:38.905Z,21
2023-02-09T02:40:49.555Z,21
2023-02-09T02:41:01.388Z,20
2023-02-09T02:41:13.707Z,19
2023-02-09T02:41:24.316Z,19
2023-02-09T02:41:34.904Z,20
2023-02-09T02:41:46.555Z,20
2023-02-09T02:41:57.160Z,21
2023-02-09T02:42:07.815Z,22
2023-02-09T02:42:18.454Z,22
2023-02-09T02:42:31.535Z,22
2023-02-09T02:42:42.173Z,21
2023-02-09T02:42:52.798Z,21
2023-02-09T02:43:05.364Z,21
2023-02-09T02:43:16.005Z,20
2023-02-09T02:43:27.524Z,20
2023-02-09T02:43:38.115Z,20
2023-02-09T02:43:49.720Z,20
2023-02-09T02:44:01.820Z,22
2023-02-09T02:44:13.405Z,21
2023-02-09T02:44:24.989Z,21
2023-02-09T02:44:37.284Z,20
2023-02-09T02:44:49.588Z,20
2023-02-09T02:45:01.962Z,20
2023-02-09T02:45:12.675Z,21
2023-02-09T02:45:23.257Z,21